Duck Valley, Nevada
Current Conditions -  °F | °C
As of 6:58 PM on Wednesday 22 Oct 2014 (Local Time) from KMUO Reporting Station
Overcast Overcast  
Wind Chill: 56°   Ceiling: 11000
Heat Index: 56°   Visibility: 10mi
Dew Point: 35°   Wind: 15mph
Humidity: 45%   Direction: 110°ESE
Pressure: 30.03"   Gusts: NA
Location:  41.9458°N, 116.094°W
Report Text: KMUO 230158Z 11013KT 10SM BKN110 OVC140 14/02 A3003 RMK AO2A SLP171 T01350016
Loading
Personal Weather Stations






























Interactive Weather Map New forecast layout! Learn more

10-Day Weather Forecast

Advertisements
Track Severe Weather on mobile